createdAt,value
2019-03-10T00:01:42.139Z,98041.04
2019-03-10T00:04:13.349Z,98037.73
2019-03-10T00:06:44.607Z,98039.78
2019-03-10T00:09:15.821Z,98039.71
2019-03-10T00:11:47.044Z,98041.00
2019-03-10T00:14:18.211Z,98041.13
2019-03-10T00:16:49.395Z,98039.92
2019-03-10T00:19:20.596Z,98029.55
2019-03-10T00:21:51.867Z,98029.13
2019-03-10T00:24:23.087Z,98030.44
2019-03-10T00:26:54.286Z,98030.87
2019-03-10T00:29:25.610Z,98027.13
2019-03-10T00:31:56.824Z,98032.98
2019-03-10T00:34:29.590Z,98038.34
2019-03-10T00:37:00.876Z,98036.63
2019-03-10T00:39:58.669Z,98032.84
2019-03-10T00:43:01.721Z,98032.20
2019-03-10T00:46:05.431Z,98015.55
2019-03-10T00:49:02.189Z,98017.38
2019-03-10T00:51:42.354Z,98019.06
2019-03-10T00:54:13.611Z,98014.78
2019-03-10T00:56:45.415Z,98012.93
2019-03-10T00:59:18.263Z,98011.10
2019-03-10T01:01:49.980Z,98001.77
2019-03-10T01:04:20.310Z,97993.73
2019-03-10T01:06:53.735Z,97997.18
2019-03-10T01:09:25.131Z,98001.00
2019-03-10T01:11:56.257Z,97997.77
2019-03-10T01:14:28.994Z,97991.90
2019-03-10T01:17:01.460Z,97980.40
2019-03-10T01:19:34.340Z,97988.73
2019-03-10T01:22:05.537Z,97982.39
2019-03-10T01:24:39.319Z,97982.62
2019-03-10T01:27:10.478Z,97972.80
2019-03-10T01:29:41.654Z,97973.13
2019-03-10T01:32:25.134Z,97955.08
2019-03-10T01:35:08.616Z,97974.50
2019-03-10T01:37:39.712Z,97961.65
2019-03-10T01:40:10.851Z,97959.25
2019-03-10T01:42:41.284Z,97954.01
2019-03-10T01:45:13.077Z,97943.54
2019-03-10T01:47:44.182Z,97936.56
2019-03-10T01:50:15.353Z,97938.45
2019-03-10T01:52:46.491Z,97922.92
2019-03-10T01:55:18.932Z,97918.64
2019-03-10T01:57:50.095Z,97921.37
2019-03-10T02:00:21.369Z,97912.33
2019-03-10T02:02:52.499Z,97912.05
2019-03-10T02:05:24.945Z,97909.03
2019-03-10T02:07:56.130Z,97909.86
2019-03-10T02:10:27.244Z,97901.55
2019-03-10T02:12:58.711Z,97894.55
2019-03-10T02:15:29.850Z,97894.32
2019-03-10T02:18:00.996Z,97895.45
2019-03-10T02:20:32.201Z,97880.13
2019-03-10T02:23:03.362Z,97880.91
2019-03-10T02:25:35.026Z,97880.36
2019-03-10T02:28:07.767Z,97875.54
2019-03-10T02:30:38.944Z,97880.36
2019-03-10T02:33:10.087Z,97873.09
2019-03-10T02:35:41.231Z,97867.25
2019-03-10T02:38:12.384Z,97844.49
2019-03-10T02:40:44.371Z,97863.02
2019-03-10T02:43:15.535Z,97863.58
2019-03-10T02:45:46.771Z,97872.36
2019-03-10T02:48:18.058Z,97879.89
2019-03-10T02:50:49.168Z,97878.83
2019-03-10T02:53:20.480Z,97863.75
2019-03-10T02:55:51.758Z,97861.80
2019-03-10T02:58:22.919Z,97846.24
2019-03-10T03:00:54.065Z,97858.27
2019-03-10T03:03:25.237Z,97862.56
2019-03-10T03:05:56.510Z,97848.20
2019-03-10T03:08:27.668Z,97845.29
2019-03-10T03:11:00.337Z,97849.14
2019-03-10T03:13:31.862Z,97841.77
2019-03-10T03:16:03.018Z,97844.02
2019-03-10T03:18:34.191Z,97839.36
2019-03-10T03:21:05.445Z,97846.78
2019-03-10T03:23:36.565Z,97825.14
2019-03-10T03:26:07.068Z,97825.27
2019-03-10T03:28:38.174Z,97824.64
2019-03-10T03:31:11.025Z,97819.52
2019-03-10T03:33:42.056Z,97806.09
2019-03-10T03:36:22.000Z,97806.09
2019-03-10T03:38:59.164Z,97804.91
2019-03-10T03:41:30.364Z,97796.70
2019-03-10T03:44:01.527Z,97798.89
2019-03-10T03:46:32.691Z,97796.64
2019-03-10T03:49:07.325Z,97790.44
2019-03-10T03:51:38.631Z,97791.67
2019-03-10T03:54:09.861Z,97782.30
2019-03-10T03:56:41.065Z,97783.84
2019-03-10T03:59:13.717Z,97780.66
2019-03-10T04:01:47.494Z,97777.92
2019-03-10T04:04:18.705Z,97774.47
2019-03-10T04:06:49.922Z,97772.33
2019-03-10T04:09:21.086Z,97767.41
2019-03-10T04:11:52.391Z,97769.53
2019-03-10T04:14:23.571Z,97764.95
2019-03-10T04:16:56.294Z,97765.91
2019-03-10T04:19:27.867Z,97761.39
2019-03-10T04:21:59.354Z,97680.11
2019-03-10T04:24:30.860Z,97751.66
2019-03-10T04:27:02.171Z,97746.64
2019-03-10T04:29:33.287Z,97742.08
2019-03-10T04:32:04.438Z,97740.28
2019-03-10T04:34:35.633Z,97739.61
2019-03-10T04:37:08.446Z,97736.36
2019-03-10T04:39:39.573Z,97728.75
2019-03-10T04:42:10.718Z,97736.33
2019-03-10T04:44:41.879Z,97735.04
2019-03-10T04:47:13.103Z,97743.10
2019-03-10T04:49:44.729Z,97733.24
2019-03-10T04:52:15.920Z,97725.47
2019-03-10T04:54:57.676Z,97732.73
2019-03-10T04:57:28.944Z,97733.80
2019-03-10T05:00:02.813Z,97725.23
2019-03-10T05:02:34.195Z,97725.28
2019-03-10T05:05:06.967Z,97720.47
2019-03-10T05:07:39.021Z,97723.51
2019-03-10T05:10:11.515Z,97714.63
2019-03-10T05:12:42.736Z,97720.13
2019-03-10T05:15:13.857Z,97718.94
2019-03-10T05:17:45.025Z,97720.08
2019-03-10T05:20:16.248Z,97723.34
2019-03-10T05:22:47.452Z,97715.88
2019-03-10T05:25:22.507Z,97722.32
2019-03-10T05:27:53.729Z,97721.01
2019-03-10T05:30:24.890Z,97729.90
2019-03-10T05:32:57.267Z,97726.94
2019-03-10T05:35:28.412Z,97711.09
2019-03-10T05:37:59.702Z,97707.06
2019-03-10T05:40:30.865Z,97700.44
2019-03-10T05:43:02.007Z,97697.26
2019-03-10T05:45:34.044Z,97702.67
2019-03-10T05:48:06.375Z,97698.08
2019-03-10T05:50:37.518Z,97697.05
2019-03-10T05:53:08.707Z,97704.59
2019-03-10T05:55:40.982Z,97714.55
2019-03-10T05:58:13.731Z,97711.83
2019-03-10T06:00:44.871Z,97706.64
2019-03-10T06:03:16.085Z,97701.72
2019-03-10T06:05:47.322Z,97690.11
2019-03-10T06:08:18.588Z,97686.77
2019-03-10T06:10:51.245Z,97694.21
2019-03-10T06:13:24.641Z,97687.19
2019-03-10T06:15:56.402Z,97696.83
2019-03-10T06:18:27.599Z,97687.08
2019-03-10T06:20:58.735Z,97682.73
2019-03-10T06:23:31.316Z,97681.66
2019-03-10T06:26:03.384Z,97676.06
2019-03-10T06:28:34.508Z,97675.27
2019-03-10T06:31:06.122Z,97665.73
2019-03-10T06:33:37.382Z,97662.80
2019-03-10T06:36:10.050Z,97662.05
2019-03-10T06:38:41.369Z,97645.29
2019-03-10T06:41:12.560Z,97636.84
2019-03-10T06:43:43.851Z,97627.54
2019-03-10T06:46:15.109Z,97620.34
2019-03-10T06:48:46.662Z,97607.45
2019-03-10T06:51:19.658Z,97616.55
2019-03-10T06:53:50.920Z,97600.72
2019-03-10T06:56:23.641Z,97589.98
2019-03-10T06:58:54.863Z,97586.26
2019-03-10T07:01:26.048Z,97585.48
2019-03-10T07:03:58.249Z,97585.22
2019-03-10T07:06:29.399Z,97578.75
2019-03-10T07:09:00.853Z,97570.70
2019-03-10T07:11:35.867Z,97568.27
2019-03-10T07:14:07.204Z,97562.09
2019-03-10T07:16:38.387Z,97563.42
2019-03-10T07:19:10.442Z,97554.23
2019-03-10T07:21:42.896Z,97540.73
2019-03-10T07:24:14.088Z,97535.41
2019-03-10T07:26:45.269Z,97508.35
2019-03-10T07:29:23.828Z,97504.51
2019-03-10T07:31:56.551Z,97507.88
2019-03-10T07:34:30.215Z,97487.34
2019-03-10T07:37:11.130Z,97470.73
2019-03-10T07:39:49.621Z,97470.98
2019-03-10T07:42:23.542Z,97476.31
2019-03-10T07:44:59.483Z,97474.25
2019-03-10T07:47:45.764Z,97459.81
2019-03-10T07:50:24.424Z,97476.53
2019-03-10T07:53:05.996Z,97477.94
2019-03-10T07:55:44.713Z,97492.90
2019-03-10T07:58:17.468Z,97476.39
2019-03-10T08:00:55.776Z,97478.84
2019-03-10T08:03:44.738Z,97472.44
2019-03-10T08:06:23.248Z,97465.73
2019-03-10T08:09:12.238Z,97461.64
2019-03-10T08:12:01.102Z,97448.98
2019-03-10T08:14:40.134Z,97451.63
2019-03-10T08:17:24.792Z,97451.78
2019-03-10T08:20:03.570Z,97429.56
2019-03-10T08:22:54.519Z,97436.58
2019-03-10T08:25:43.587Z,97430.66
2019-03-10T08:28:34.577Z,97433.86
2019-03-10T08:31:25.297Z,97428.47
2019-03-10T08:33:58.080Z,97431.17
2019-03-10T08:36:37.548Z,97428.39
2019-03-10T08:39:26.647Z,97419.39
2019-03-10T08:42:19.444Z,97422.58
2019-03-10T08:44:56.208Z,97424.80
2019-03-10T08:47:38.693Z,97423.63
2019-03-10T08:50:11.452Z,97414.67
2019-03-10T08:52:44.172Z,97407.21
2019-03-10T08:55:35.229Z,97414.49
2019-03-10T08:58:11.936Z,97414.28
2019-03-10T09:01:03.035Z,97418.17
2019-03-10T09:03:54.076Z,97340.10
2019-03-10T09:06:38.872Z,97410.42
2019-03-10T09:09:17.639Z,97408.63
2019-03-10T09:11:50.578Z,97420.62
2019-03-10T09:14:35.624Z,97416.94
2019-03-10T09:17:15.636Z,97415.33
2019-03-10T09:19:48.372Z,97410.82
2019-03-10T09:22:26.992Z,97414.59
2019-03-10T09:25:18.035Z,97404.92
2019-03-10T09:27:56.959Z,97394.17
2019-03-10T09:30:38.470Z,97395.33
2019-03-10T09:33:17.393Z,97390.23
2019-03-10T09:35:50.121Z,97385.37
2019-03-10T09:38:22.856Z,97394.80
2019-03-10T09:40:59.584Z,97393.20
2019-03-10T09:43:35.217Z,97388.09
2019-03-10T09:46:13.666Z,97386.19
2019-03-10T09:48:46.413Z,97387.00
2019-03-10T09:51:22.101Z,97375.19
2019-03-10T09:54:03.924Z,97378.98
2019-03-10T09:56:38.436Z,97375.21
2019-03-10T09:59:13.974Z,97383.30
2019-03-10T10:01:51.572Z,97384.08
2019-03-10T10:04:41.536Z,97380.05
2019-03-10T10:07:14.440Z,97368.73
2019-03-10T10:09:56.088Z,97373.04
2019-03-10T10:12:29.532Z,97371.76
2019-03-10T10:15:05.075Z,97379.03
2019-03-10T10:17:49.889Z,97384.45
2019-03-10T10:20:34.585Z,97377.47
2019-03-10T10:23:23.387Z,97372.63
2019-03-10T10:25:58.820Z,97386.09
2019-03-10T10:28:37.324Z,97384.19
2019-03-10T10:31:25.078Z,97379.87
2019-03-10T10:34:01.151Z,97374.52
2019-03-10T10:36:42.681Z,97369.92
2019-03-10T10:40:12.158Z,97363.73
2019-03-10T10:43:01.953Z,97359.66
2019-03-10T10:45:34.695Z,97356.09
2019-03-10T10:48:07.585Z,97343.69
2019-03-10T10:50:55.505Z,97344.39
2019-03-10T10:53:28.188Z,97355.98
2019-03-10T10:56:14.452Z,97352.08
2019-03-10T10:58:56.177Z,97369.33
2019-03-10T11:01:31.618Z,97354.33
2019-03-10T11:04:16.589Z,97350.27
2019-03-10T11:06:51.051Z,97367.74
2019-03-10T11:09:23.909Z,97393.07
2019-03-10T11:12:05.670Z,97392.53
2019-03-10T11:14:44.437Z,97378.25
2019-03-10T11:17:28.964Z,97391.44
2019-03-10T11:20:20.339Z,97389.28
2019-03-10T11:23:09.788Z,97366.14
2019-03-10T11:25:56.858Z,97392.22
2019-03-10T11:28:29.608Z,97391.12
2019-03-10T11:31:06.863Z,97378.52
2019-03-10T11:33:46.051Z,97409.41
2019-03-10T11:36:35.099Z,97396.22
2019-03-10T11:39:24.705Z,97393.80
2019-03-10T11:42:01.476Z,97405.38
2019-03-10T11:44:37.243Z,97402.91
2019-03-10T11:47:16.168Z,97425.37
2019-03-10T11:49:58.103Z,97423.15
2019-03-10T11:52:30.836Z,97419.41
2019-03-10T11:55:10.029Z,97434.59
2019-03-10T11:57:42.749Z,97418.55
2019-03-10T12:00:33.714Z,97413.45
2019-03-10T12:03:22.891Z,97423.63
2019-03-10T12:05:58.670Z,97415.28
2019-03-10T12:08:46.740Z,97424.16
2019-03-10T12:11:18.875Z,97427.05
2019-03-10T12:13:50.052Z,97467.22
2019-03-10T12:16:21.284Z,97458.73
2019-03-10T12:18:53.702Z,97455.98
2019-03-10T12:21:24.925Z,97450.18
2019-03-10T12:23:56.101Z,97445.08
2019-03-10T12:26:27.236Z,97475.95
2019-03-10T12:28:58.406Z,97460.89
2019-03-10T12:31:29.616Z,97436.36
2019-03-10T12:34:01.086Z,97454.13
2019-03-10T12:36:32.249Z,97477.43
2019-03-10T12:39:09.851Z,97476.17
2019-03-10T12:41:43.247Z,97474.06
2019-03-10T12:44:14.462Z,97473.89
2019-03-10T12:46:46.967Z,97477.64
2019-03-10T12:49:18.163Z,97486.55
2019-03-10T12:51:49.322Z,97490.77
2019-03-10T12:54:21.301Z,97476.25
2019-03-10T12:56:52.463Z,97494.98
2019-03-10T12:59:23.722Z,97462.42
2019-03-10T13:01:55.461Z,97441.53
2019-03-10T13:04:26.627Z,97479.87
2019-03-10T13:06:58.136Z,97500.36
2019-03-10T13:09:30.318Z,97514.39
2019-03-10T13:12:03.528Z,97501.80
2019-03-10T13:14:36.265Z,97504.52
2019-03-10T13:17:08.071Z,97522.28
2019-03-10T13:19:39.193Z,97517.20
2019-03-10T13:22:10.395Z,97512.00
2019-03-10T13:24:40.840Z,97504.97
2019-03-10T13:27:11.895Z,97517.67
2019-03-10T13:29:44.802Z,97520.88
2019-03-10T13:32:17.099Z,97506.63
2019-03-10T13:34:50.443Z,97509.30
2019-03-10T13:37:23.154Z,97518.14
2019-03-10T13:39:54.274Z,97533.94
2019-03-10T13:42:27.031Z,97531.50
2019-03-10T13:44:59.819Z,97533.67
2019-03-10T13:47:31.025Z,97535.02
2019-03-10T13:50:02.249Z,97534.98
2019-03-10T13:52:33.457Z,97546.51
2019-03-10T13:55:06.504Z,97534.43
2019-03-10T13:57:38.074Z,97544.06
2019-03-10T14:00:23.897Z,97549.47
2019-03-10T14:02:55.643Z,97545.75
2019-03-10T14:05:26.944Z,97547.15
2019-03-10T14:07:59.086Z,97550.08
2019-03-10T14:10:36.854Z,97545.20
2019-03-10T14:13:09.094Z,97559.05
2019-03-10T14:15:40.298Z,97558.50
2019-03-10T14:18:11.434Z,97579.28
2019-03-10T14:20:42.963Z,97575.22
2019-03-10T14:23:14.194Z,97565.82
2019-03-10T14:25:48.584Z,97579.55
2019-03-10T14:28:22.064Z,97566.38
2019-03-10T14:30:54.295Z,97581.72
2019-03-10T14:33:27.487Z,97581.96
2019-03-10T14:35:59.605Z,97583.58
2019-03-10T14:38:32.737Z,97570.45
2019-03-10T14:41:06.194Z,97592.22
2019-03-10T14:43:37.866Z,97579.11
2019-03-10T14:46:09.490Z,97592.05
2019-03-10T14:48:42.197Z,97571.03
2019-03-10T14:51:14.788Z,97586.10
2019-03-10T14:53:45.928Z,97579.88
2019-03-10T14:56:17.101Z,97600.03
2019-03-10T14:58:49.887Z,97595.20
2019-03-10T15:01:22.375Z,97605.41
2019-03-10T15:03:53.780Z,97613.39
2019-03-10T15:06:26.474Z,97607.54
2019-03-10T15:08:57.641Z,97619.28
2019-03-10T15:11:29.211Z,97628.17
2019-03-10T15:14:00.281Z,97639.95
2019-03-10T15:16:31.598Z,97633.78
2019-03-10T15:19:03.272Z,97632.44
2019-03-10T15:21:34.537Z,97636.92
2019-03-10T15:24:07.222Z,97630.20
2019-03-10T15:26:45.683Z,97650.34
2019-03-10T15:29:11.292Z,97662.39
2019-03-10T15:31:42.580Z,97655.95
2019-03-10T15:34:14.379Z,97653.79
2019-03-10T15:36:45.517Z,97671.52
2019-03-10T15:39:18.048Z,97673.65
2019-03-10T15:41:50.858Z,97666.38
2019-03-10T15:44:22.057Z,97677.20
2019-03-10T15:46:54.762Z,97674.44
2019-03-10T15:49:26.451Z,97677.13
2019-03-10T15:52:00.712Z,97667.49
2019-03-10T15:54:34.946Z,97697.89
2019-03-10T15:57:06.220Z,97687.15
2019-03-10T15:59:39.106Z,97699.23
2019-03-10T16:02:10.684Z,97699.44
2019-03-10T16:04:44.015Z,97705.88
2019-03-10T16:07:15.159Z,97704.80
2019-03-10T16:09:46.315Z,97710.45
2019-03-10T16:12:17.496Z,97713.88
2019-03-10T16:14:48.643Z,97712.73
2019-03-10T16:17:19.954Z,97721.58
2019-03-10T16:19:51.619Z,97709.13
2019-03-10T16:22:22.772Z,97720.65
2019-03-10T16:24:53.955Z,97722.45
2019-03-10T16:27:26.762Z,97727.50
2019-03-10T16:29:59.464Z,97724.83
2019-03-10T16:32:30.599Z,97728.80
2019-03-10T16:35:03.114Z,97731.20
2019-03-10T16:37:34.253Z,97729.30
2019-03-10T16:40:14.590Z,97730.41
2019-03-10T16:42:48.014Z,97728.29
2019-03-10T16:45:27.780Z,97723.70
2019-03-10T16:47:58.892Z,97730.70
2019-03-10T16:50:30.481Z,97730.51
2019-03-10T16:53:01.710Z,97728.29
2019-03-10T16:55:32.819Z,97724.86
2019-03-10T16:58:03.330Z,97727.28
2019-03-10T17:00:34.444Z,97725.70
2019-03-10T17:03:57.561Z,97725.42
2019-03-10T17:06:29.891Z,97727.04
2019-03-10T17:09:04.568Z,97712.83
2019-03-10T17:11:38.582Z,97714.41
2019-03-10T17:14:10.555Z,97717.14
2019-03-10T17:16:41.729Z,97707.78
2019-03-10T17:19:12.950Z,97715.84
2019-03-10T17:21:44.078Z,97705.84
2019-03-10T17:24:14.503Z,97705.02
2019-03-10T17:26:45.671Z,97701.00
2019-03-10T17:29:16.889Z,97706.64
2019-03-10T17:31:49.020Z,97698.39
2019-03-10T17:34:20.165Z,97702.09
2019-03-10T17:36:52.316Z,97706.41
2019-03-10T17:39:23.451Z,97699.70
2019-03-10T17:41:54.626Z,97694.60
2019-03-10T17:44:27.391Z,97696.78
2019-03-10T17:46:58.587Z,97695.62
2019-03-10T17:49:29.934Z,97685.63
2019-03-10T17:52:01.065Z,97683.73
2019-03-10T17:54:33.987Z,97678.55
2019-03-10T17:57:05.153Z,97679.89
2019-03-10T17:59:36.310Z,97681.75
2019-03-10T18:02:09.348Z,97676.66
2019-03-10T18:04:40.262Z,97681.79
2019-03-10T18:07:11.380Z,97673.42
2019-03-10T18:09:43.663Z,97675.49
2019-03-10T18:12:14.978Z,97671.15
2019-03-10T18:14:46.049Z,97667.36
2019-03-10T18:17:17.620Z,97664.96
2019-03-10T18:19:48.800Z,97669.81
2019-03-10T18:22:21.167Z,97665.23
2019-03-10T18:24:52.354Z,97662.83
2019-03-10T18:27:23.524Z,97656.08
2019-03-10T18:29:54.787Z,97650.16
2019-03-10T18:32:28.012Z,97646.08
2019-03-10T18:34:59.350Z,97640.98
2019-03-10T18:37:33.002Z,97636.42
2019-03-10T18:40:05.081Z,97628.92
2019-03-10T18:42:36.262Z,97632.90
2019-03-10T18:45:10.675Z,97631.88
2019-03-10T18:47:43.385Z,97626.25
2019-03-10T18:50:18.946Z,97630.55
2019-03-10T18:52:49.959Z,97634.56
2019-03-10T18:55:27.560Z,97637.72
2019-03-10T18:58:00.123Z,97635.31
2019-03-10T19:00:32.045Z,97637.58
2019-03-10T19:03:03.078Z,97636.23
2019-03-10T19:05:34.283Z,97629.53
2019-03-10T19:08:06.108Z,97633.32
2019-03-10T19:10:39.432Z,97628.98
2019-03-10T19:13:12.053Z,97627.34
2019-03-10T19:15:43.268Z,97626.30
2019-03-10T19:18:15.936Z,97616.85
2019-03-10T19:20:48.916Z,97620.73
2019-03-10T19:23:22.877Z,97621.42
2019-03-10T19:25:54.070Z,97618.64
2019-03-10T19:28:25.277Z,97618.09
2019-03-10T19:31:17.189Z,97614.57
2019-03-10T19:33:50.653Z,97608.81
2019-03-10T19:36:21.844Z,97604.43
2019-03-10T19:38:52.940Z,97596.54
2019-03-10T19:41:24.183Z,97596.45
2019-03-10T19:43:55.307Z,97592.98
2019-03-10T19:46:26.521Z,97593.48
2019-03-10T19:48:59.188Z,97583.99
2019-03-10T19:51:30.526Z,97575.63
2019-03-10T19:54:01.669Z,97575.00
2019-03-10T19:56:32.902Z,97571.66
2019-03-10T19:59:05.042Z,97572.64
2019-03-10T20:01:37.902Z,97566.72
2019-03-10T20:04:09.091Z,97563.27
2019-03-10T20:06:40.280Z,97565.05
2019-03-10T20:09:11.445Z,97559.58
2019-03-10T20:11:42.802Z,97559.63
2019-03-10T20:14:13.894Z,97563.30
2019-03-10T20:16:44.349Z,97560.64
2019-03-10T20:19:16.750Z,97553.16
2019-03-10T20:21:48.948Z,97560.41
2019-03-10T20:24:20.195Z,97557.96
2019-03-10T20:26:53.049Z,97555.95
2019-03-10T20:29:24.223Z,97557.98
2019-03-10T20:31:54.703Z,97558.81
2019-03-10T20:34:25.814Z,97558.53
2019-03-10T20:36:56.960Z,97562.75
2019-03-10T20:39:29.705Z,97558.27
2019-03-10T20:42:04.986Z,97540.47
2019-03-10T20:44:35.219Z,97556.58
2019-03-10T20:47:06.532Z,97552.33
2019-03-10T20:49:38.740Z,97555.94
2019-03-10T20:52:10.027Z,97548.08
2019-03-10T20:54:42.497Z,97551.03
2019-03-10T20:57:13.728Z,97546.95
2019-03-10T20:59:44.811Z,97553.13
2019-03-10T21:02:16.684Z,97540.89
2019-03-10T21:04:47.815Z,97550.33
2019-03-10T21:07:19.055Z,97550.80
2019-03-10T21:09:50.181Z,97545.12
2019-03-10T21:12:20.574Z,97538.02
2019-03-10T21:14:51.604Z,97535.12
2019-03-10T21:17:22.689Z,97532.80
2019-03-10T21:19:53.035Z,97540.26
2019-03-10T21:22:24.249Z,97536.66
2019-03-10T21:24:57.311Z,97543.84
2019-03-10T21:27:28.485Z,97531.47
2019-03-10T21:29:59.622Z,97533.86
2019-03-10T21:32:31.921Z,97525.97
2019-03-10T21:35:03.063Z,97540.63
2019-03-10T21:37:35.821Z,97548.77
2019-03-10T21:40:10.039Z,97546.44
2019-03-10T21:42:41.329Z,97539.91
2019-03-10T21:45:12.524Z,97542.52
2019-03-10T21:47:43.712Z,97545.25
2019-03-10T21:50:16.162Z,97542.02
2019-03-10T21:52:48.336Z,97540.67
2019-03-10T21:55:19.479Z,97536.61
2019-03-10T21:57:51.711Z,97548.70
2019-03-10T22:00:22.847Z,97542.42
2019-03-10T22:02:54.910Z,97536.77
2019-03-10T22:05:26.683Z,97532.66
2019-03-10T22:07:57.825Z,97541.52
2019-03-10T22:10:29.731Z,97539.48
2019-03-10T22:13:00.901Z,97528.00
2019-03-10T22:15:41.070Z,97536.05
2019-03-10T22:18:05.864Z,97545.20
2019-03-10T22:20:37.034Z,97534.06
2019-03-10T22:23:08.301Z,97537.09
2019-03-10T22:25:41.003Z,97540.67
2019-03-10T22:28:12.158Z,97536.67
2019-03-10T22:30:44.675Z,97535.90
2019-03-10T22:33:16.356Z,97532.27
2019-03-10T22:35:48.357Z,97528.81
2019-03-10T22:38:20.071Z,97527.78
2019-03-10T22:40:51.122Z,97523.11
2019-03-10T22:43:22.368Z,97518.25
2019-03-10T22:45:55.662Z,97515.85
2019-03-10T22:48:26.851Z,97513.45
2019-03-10T22:50:59.482Z,97504.98
2019-03-10T22:55:56.262Z,97504.38
2019-03-10T22:58:27.398Z,97504.88
2019-03-10T23:00:58.661Z,97508.67
2019-03-10T23:03:30.270Z,97506.27
2019-03-10T23:06:01.459Z,97507.67
2019-03-10T23:08:32.602Z,97508.55
2019-03-10T23:11:03.769Z,97508.56
2019-03-10T23:13:34.899Z,97508.63
2019-03-10T23:16:06.063Z,97505.16
2019-03-10T23:18:37.239Z,97505.21
2019-03-10T23:21:08.391Z,97503.60
2019-03-10T23:23:39.591Z,97502.63
2019-03-10T23:26:11.779Z,97498.33
2019-03-10T23:28:42.951Z,97493.53
2019-03-10T23:31:14.227Z,97489.52
2019-03-10T23:33:45.654Z,97489.75
2019-03-10T23:36:16.896Z,97479.30
2019-03-10T23:38:48.255Z,97482.31
2019-03-10T23:41:19.368Z,97476.41
2019-03-10T23:43:50.575Z,97470.54
2019-03-10T23:46:21.775Z,97458.48
2019-03-10T23:48:52.944Z,97469.48
2019-03-10T23:51:23.453Z,97462.78
2019-03-10T23:53:54.658Z,97465.45
2019-03-10T23:56:25.779Z,97459.88
2019-03-10T23:58:56.929Z,97461.53
